Time;durP1;ratioP1;P1;durP2;ratioP2;P2;SDS_P1;SDS_P2;PMS_P1;PMS_P2;Temp;Humidity;BMP_temperature;BMP_pressure;BME280_temperature;BME280_humidity;BME280_pressure;Samples;Min_cycle;Max_cycle;Signal;HPM_P1;HPM_P2
2022/01/08 00:01:42;;;;;;;;;;;19.70;58.40;;;;;;5041040;28;1266;-69
2022/01/08 00:04:08;;;;;;;;;;;19.70;58.40;;;;;;5033797;28;1280;-68
2022/01/08 00:06:33;;;;;;;;;;;19.60;58.40;;;;;;5052268;28;1250;-70
2022/01/08 00:08:59;;;;;;;;;;;19.60;58.40;;;;;;5051333;28;1047;-68
2022/01/08 00:11:27;;;;;;;;;;;19.60;58.40;;;;;;5051990;28;1069;-67
2022/01/08 00:13:52;;;;;;;;;;;19.60;58.40;;;;;;5050987;28;1337;-67
2022/01/08 00:16:18;;;;;;;;;;;19.60;58.40;;;;;;5045190;28;1906;-67
2022/01/08 00:18:43;;;;;;;;;;;19.60;58.40;;;;;;5052350;28;1079;-70
2022/01/08 00:21:09;;;;;;;;;;;19.60;58.50;;;;;;5051728;28;1274;-67
2022/01/08 00:23:34;;;;;;;;;;;19.60;58.50;;;;;;5050586;28;1315;-67
2022/01/08 00:26:00;;;;;;;;;;;19.60;59.10;;;;;;5049533;28;1278;-69
2022/01/08 00:28:26;;;;;;;;;;;19.60;58.50;;;;;;5051422;28;1078;-66
2022/01/08 00:30:51;;;;;;;;;;;19.60;58.50;;;;;;5051742;28;1290;-68
2022/01/08 00:33:17;;;;;;;;;;;19.60;58.50;;;;;;5050142;28;1219;-68
2022/01/08 00:35:42;;;;;;;;;;;19.60;58.60;;;;;;5051413;28;1969;-69
2022/01/08 00:38:07;;;;;;;;;;;19.60;58.60;;;;;;5052375;28;1107;-68
2022/01/08 00:40:33;;;;;;;;;;;19.60;58.60;;;;;;5051763;28;1421;-67
2022/01/08 00:42:58;;;;;;;;;;;19.50;58.60;;;;;;5050480;28;1091;-69
2022/01/08 00:45:24;;;;;;;;;;;19.60;58.60;;;;;;5039176;28;1222;-68
2022/01/08 00:47:49;;;;;;;;;;;19.60;59.20;;;;;;5052029;28;1671;-68
2022/01/08 00:50:15;;;;;;;;;;;19.60;58.60;;;;;;5052214;28;1315;-68
2022/01/08 00:52:40;;;;;;;;;;;19.50;58.60;;;;;;5051979;28;1298;-71
2022/01/08 00:55:06;;;;;;;;;;;19.50;58.60;;;;;;5050579;28;1966;-68
2022/01/08 00:57:31;;;;;;;;;;;19.50;58.70;;;;;;5051896;28;1079;-68
2022/01/08 00:59:57;;;;;;;;;;;19.50;58.70;;;;;;5052020;28;1323;-69
2022/01/08 01:02:22;;;;;;;;;;;19.50;58.60;;;;;;5050485;28;1079;-70
2022/01/08 01:04:48;;;;;;;;;;;19.50;58.70;;;;;;5051314;28;1206;-70
2022/01/08 01:07:13;;;;;;;;;;;19.50;58.70;;;;;;5038669;28;1078;-72
2022/01/08 01:09:39;;;;;;;;;;;19.50;58.70;;;;;;5067363;28;1210;-71
2022/01/08 01:12:04;;;;;;;;;;;19.50;58.70;;;;;;5055015;28;1299;-70
2022/01/08 01:14:30;;;;;;;;;;;19.50;58.70;;;;;;5054256;28;1967;-70
2022/01/08 01:16:56;;;;;;;;;;;19.50;58.70;;;;;;5054946;28;1039;-70
2022/01/08 01:19:22;;;;;;;;;;;19.50;58.70;;;;;;5055183;28;1337;-72
2022/01/08 01:21:47;;;;;;;;;;;19.50;58.80;;;;;;5055596;28;1169;-67
2022/01/08 01:24:18;;;;;;;;;;;19.50;58.80;;;;;;5054819;28;1363;-68
2022/01/08 01:27:38;;;;;;;;;;;19.50;58.80;;;;;;5054660;28;1278;-68
2022/01/08 01:29:50;;;;;;;;;;;19.50;58.80;;;;;;5053948;28;1166;-67
2022/01/08 01:48:41;;;;;;;;;;;19.50;58.80;;;;;;5041551;28;941;-69
2022/01/08 01:51:06;;;;;;;;;;;19.50;58.70;;;;;;5054323;28;1402;-68
2022/01/08 01:53:32;;;;;;;;;;;19.50;58.70;;;;;;5047246;28;1345;-68
2022/01/08 01:55:57;;;;;;;;;;;19.50;58.70;;;;;;5048218;28;1906;-67
2022/01/08 01:58:22;;;;;;;;;;;19.50;58.70;;;;;;5070187;28;1311;-66
2022/01/08 02:00:48;;;;;;;;;;;19.50;58.70;;;;;;5054256;28;1277;-67
2022/01/08 02:03:14;;;;;;;;;;;19.50;58.70;;;;;;5052178;28;1294;-68
2022/01/08 02:05:39;;;;;;;;;;;19.50;58.70;;;;;;5053886;28;1204;-69
2022/01/08 02:08:04;;;;;;;;;;;19.50;58.70;;;;;;5054273;28;1387;-68
2022/01/08 02:10:30;;;;;;;;;;;19.50;58.70;;;;;;5054226;28;1126;-68
2022/01/08 02:12:55;;;;;;;;;;;19.50;58.70;;;;;;5053441;28;1276;-70
2022/01/08 02:15:21;;;;;;;;;;;19.50;58.60;;;;;;5040732;28;1902;-70
2022/01/08 02:17:47;;;;;;;;;;;19.50;58.60;;;;;;5053698;28;1223;-70
2022/01/08 02:20:13;;;;;;;;;;;19.50;58.60;;;;;;5053981;28;1062;-68
2022/01/08 02:22:38;;;;;;;;;;;19.50;58.60;;;;;;5046051;28;1206;-69
2022/01/08 02:25:04;;;;;;;;;;;19.50;58.60;;;;;;5045544;28;1386;-68
2022/01/08 02:27:29;;;;;;;;;;;19.50;58.60;;;;;;5053631;28;1399;-67
2022/01/08 02:29:55;;;;;;;;;;;19.50;58.60;;;;;;5053789;28;1300;-68
2022/01/08 02:32:24;;;;;;;;;;;19.50;58.60;;;;;;5053821;28;1337;-70
2022/01/08 02:34:49;;;;;;;;;;;19.50;58.60;;;;;;5052974;28;1988;-69
2022/01/08 02:37:15;;;;;;;;;;;19.50;58.60;;;;;;5053253;28;1301;-70
2022/01/08 02:39:44;;;;;;;;;;;19.50;58.60;;;;;;5069022;28;1091;-69
2022/01/08 02:42:11;;;;;;;;;;;19.50;58.60;;;;;;5052495;28;1114;-69
2022/01/08 02:44:37;;;;;;;;;;;19.50;58.60;;;;;;5051844;28;1366;-72
2022/01/08 02:47:02;;;;;;;;;;;19.50;58.60;;;;;;5039504;28;1070;-69
2022/01/08 02:49:28;;;;;;;;;;;19.50;58.60;;;;;;5052494;28;1141;-70
2022/01/08 02:51:53;;;;;;;;;;;19.50;58.60;;;;;;5046837;28;1016;-71
2022/01/08 02:54:19;;;;;;;;;;;19.50;58.60;;;;;;5060900;28;1380;-70
2022/01/08 02:56:45;;;;;;;;;;;19.50;58.60;;;;;;5051631;28;1930;-68
2022/01/08 02:59:10;;;;;;;;;;;19.50;58.60;;;;;;5053694;28;1287;-68
2022/01/08 03:01:36;;;;;;;;;;;19.50;58.60;;;;;;5052272;28;1424;-68
2022/01/08 03:04:02;;;;;;;;;;;19.50;58.60;;;;;;5053183;28;1379;-69
2022/01/08 03:06:27;;;;;;;;;;;19.50;58.70;;;;;;5052257;28;1313;-68
2022/01/08 03:08:52;;;;;;;;;;;19.50;58.70;;;;;;5053335;28;1404;-68
2022/01/08 03:11:18;;;;;;;;;;;19.50;58.70;;;;;;5051761;28;1388;-69
2022/01/08 03:13:43;;;;;;;;;;;19.50;58.70;;;;;;5052334;28;1294;-68
2022/01/08 03:16:09;;;;;;;;;;;19.50;58.70;;;;;;5052897;28;1910;-68
2022/01/08 03:18:36;;;;;;;;;;;19.50;58.70;;;;;;5052518;28;1371;-68
2022/01/08 03:21:12;;;;;;;;;;;19.50;58.70;;;;;;5052567;28;1297;-67
2022/01/08 03:23:43;;;;;;;;;;;19.40;58.70;;;;;;5052265;28;1312;-68
2022/01/08 03:26:09;;;;;;;;;;;19.40;58.70;;;;;;5052702;28;1309;-67
2022/01/08 03:28:35;;;;;;;;;;;19.50;58.80;;;;;;5052964;28;1063;-67
2022/01/08 03:31:00;;;;;;;;;;;19.50;58.80;;;;;;5052556;28;1380;-67
2022/01/08 03:33:25;;;;;;;;;;;19.40;59.30;;;;;;5051029;28;1071;-67
2022/01/08 03:35:51;;;;;;;;;;;19.40;58.80;;;;;;5051988;28;1898;-68
2022/01/08 03:38:16;;;;;;;;;;;19.40;58.80;;;;;;5052729;28;1062;-69
2022/01/08 03:40:42;;;;;;;;;;;19.40;58.80;;;;;;5044837;28;1078;-68
2022/01/08 03:43:07;;;;;;;;;;;19.40;58.80;;;;;;5046461;28;1345;-68
2022/01/08 03:45:33;;;;;;;;;;;19.40;58.80;;;;;;5052168;28;1197;-67
2022/01/08 03:50:29;;;;;;;;;;;19.40;58.90;;;;;;5052305;28;1349;-69
2022/01/08 03:52:55;;;;;;;;;;;19.40;58.90;;;;;;5051867;28;1103;-70
2022/01/08 03:55:22;;;;;;;;;;;19.40;58.90;;;;;;5052210;28;1882;-70
2022/01/08 03:57:47;;;;;;;;;;;19.40;58.90;;;;;;5052141;28;1229;-70
2022/01/08 04:00:13;;;;;;;;;;;19.40;58.90;;;;;;5052372;28;1138;-70
2022/01/08 04:02:38;;;;;;;;;;;19.40;58.90;;;;;;5052099;28;1232;-70
2022/01/08 04:05:04;;;;;;;;;;;19.40;59.00;;;;;;5051611;28;1192;-71
2022/01/08 04:07:29;;;;;;;;;;;19.40;59.00;;;;;;5052181;28;1047;-68
2022/01/08 04:09:55;;;;;;;;;;;19.30;58.90;;;;;;5052535;28;1090;-68
2022/01/08 04:12:30;;;;;;;;;;;19.40;58.90;;;;;;5052232;28;1043;-71
2022/01/08 04:15:05;;;;;;;;;;;19.40;58.90;;;;;;5042133;28;1977;-68
2022/01/08 04:17:30;;;;;;;;;;;19.30;58.90;;;;;;5048970;28;1040;-69
2022/01/08 04:19:56;;;;;;;;;;;19.40;59.00;;;;;;5040566;28;1107;-69
2022/01/08 04:22:23;;;;;;;;;;;19.30;58.90;;;;;;5049272;28;1313;-69
2022/01/08 04:24:49;;;;;;;;;;;19.40;59.00;;;;;;5073074;22;2074;-71
2022/01/08 04:27:15;;;;;;;;;;;19.30;58.90;;;;;;5037650;28;2591;-71
2022/01/08 04:29:40;;;;;;;;;;;19.30;58.90;;;;;;5043270;28;879;-70
2022/01/08 04:32:06;;;;;;;;;;;19.30;58.90;;;;;;5051305;28;1104;-71
2022/01/08 04:34:31;;;;;;;;;;;19.30;58.90;;;;;;5052229;28;1910;-71
2022/01/08 04:36:57;;;;;;;;;;;19.40;59.00;;;;;;5051015;28;1648;-71
2022/01/08 04:39:22;;;;;;;;;;;19.40;59.00;;;;;;5051551;28;1316;-71
2022/01/08 04:41:48;;;;;;;;;;;19.30;58.90;;;;;;5052421;28;1258;-70
2022/01/08 04:44:13;;;;;;;;;;;19.30;58.90;;;;;;5051891;28;1606;-71
2022/01/08 04:46:40;;;;;;;;;;;19.40;59.00;;;;;;5056304;28;1259;-70
2022/01/08 04:49:06;;;;;;;;;;;19.40;59.00;;;;;;5056367;28;839;-71
2022/01/08 04:51:31;;;;;;;;;;;19.40;59.00;;;;;;5056102;28;1523;-72
2022/01/08 04:53:57;;;;;;;;;;;19.30;58.90;;;;;;5055915;28;1395;-72
2022/01/08 04:56:22;;;;;;;;;;;19.30;58.90;;;;;;5054788;28;1962;-72
2022/01/08 04:58:48;;;;;;;;;;;19.30;58.90;;;;;;5056106;28;1390;-72
2022/01/08 05:01:16;;;;;;;;;;;19.30;58.90;;;;;;5055826;28;1522;-73
2022/01/08 05:03:42;;;;;;;;;;;19.40;59.00;;;;;;5054555;28;973;-72
2022/01/08 05:06:07;;;;;;;;;;;19.30;58.90;;;;;;5055919;28;1483;-72
2022/01/08 05:08:33;;;;;;;;;;;19.30;58.90;;;;;;5055998;28;1280;-72
2022/01/08 05:10:58;;;;;;;;;;;19.30;58.90;;;;;;5055862;28;1444;-72
2022/01/08 05:13:23;;;;;;;;;;;19.40;59.00;;;;;;5055531;28;1116;-72
2022/01/08 05:15:49;;;;;;;;;;;19.30;58.90;;;;;;5054639;28;1915;-72
2022/01/08 05:18:15;;;;;;;;;;;19.40;58.90;;;;;;5054747;28;1276;-73
2022/01/08 05:20:43;;;;;;;;;;;19.40;58.80;;;;;;5045831;28;1145;-73
2022/01/08 05:23:09;;;;;;;;;;;19.40;58.70;;;;;;5045922;28;1204;-70
2022/01/08 05:25:34;;;;;;;;;;;19.40;58.60;;;;;;5049917;28;1574;-71
2022/01/08 05:28:00;;;;;;;;;;;19.50;58.70;;;;;;5048140;28;1392;-72
2022/01/08 05:30:25;;;;;;;;;;;19.50;58.50;;;;;;5046349;28;1220;-70
2022/01/08 05:32:51;;;;;;;;;;;19.50;58.50;;;;;;5043776;28;1183;-72
2022/01/08 05:35:16;;;;;;;;;;;19.50;58.40;;;;;;5044708;28;1914;-71
2022/01/08 05:37:42;;;;;;;;;;;19.60;58.60;;;;;;5044421;28;1523;-71
2022/01/08 05:40:07;;;;;;;;;;;19.60;58.30;;;;;;5060999;28;1260;-72
2022/01/08 05:42:33;;;;;;;;;;;19.60;58.20;;;;;;5062962;28;1230;-71
2022/01/08 05:44:58;;;;;;;;;;;19.60;58.20;;;;;;5045915;28;1335;-72
2022/01/08 05:47:27;;;;;;;;;;;19.70;58.20;;;;;;5044100;28;1283;-71
2022/01/08 05:49:53;;;;;;;;;;;19.70;58.10;;;;;;5063212;28;1417;-71
2022/01/08 05:52:18;;;;;;;;;;;19.70;58.00;;;;;;5043969;28;1220;-70
2022/01/08 05:54:44;;;;;;;;;;;19.70;58.00;;;;;;5045246;28;1898;-71
2022/01/08 05:57:09;;;;;;;;;;;19.70;57.90;;;;;;5045194;28;1195;-72
2022/01/08 05:59:34;;;;;;;;;;;19.70;57.80;;;;;;5042815;28;1219;-71
2022/01/08 06:02:00;;;;;;;;;;;19.80;57.80;;;;;;5054853;28;1400;-72
2022/01/08 06:04:25;;;;;;;;;;;19.80;57.70;;;;;;5053269;28;1515;-72
2022/01/08 06:06:51;;;;;;;;;;;19.90;57.70;;;;;;5054497;28;1325;-71
2022/01/08 06:09:16;;;;;;;;;;;19.90;57.60;;;;;;5054593;28;1076;-71
2022/01/08 06:11:42;;;;;;;;;;;19.90;57.60;;;;;;5054473;28;1314;-71
2022/01/08 06:14:07;;;;;;;;;;;19.90;57.60;;;;;;5052936;28;1267;-71
2022/01/08 06:16:35;;;;;;;;;;;19.90;57.50;;;;;;5053183;28;1956;-71
2022/01/08 06:19:05;;;;;;;;;;;19.90;57.50;;;;;;5053253;28;1355;-71
2022/01/08 06:21:30;;;;;;;;;;;19.90;57.40;;;;;;5053294;28;1163;-71
2022/01/08 06:23:56;;;;;;;;;;;19.90;57.40;;;;;;5052816;28;1221;-71
2022/01/08 06:26:21;;;;;;;;;;;19.90;57.40;;;;;;5053823;28;1227;-71
2022/01/08 06:28:49;;;;;;;;;;;19.90;57.40;;;;;;5054288;28;1288;-71
2022/01/08 06:31:14;;;;;;;;;;;20.00;57.40;;;;;;5054064;28;1079;-71
2022/01/08 06:33:40;;;;;;;;;;;20.00;57.40;;;;;;5053933;28;1127;-71
2022/01/08 06:36:05;;;;;;;;;;;20.00;57.40;;;;;;5052693;28;1906;-71
2022/01/08 06:38:31;;;;;;;;;;;20.00;57.40;;;;;;5054033;28;1115;-71
2022/01/08 06:40:56;;;;;;;;;;;19.90;57.30;;;;;;5053787;28;1099;-71
2022/01/08 06:43:21;;;;;;;;;;;20.00;57.30;;;;;;5053696;28;1119;-71
2022/01/08 06:45:47;;;;;;;;;;;20.00;57.40;;;;;;5053970;28;1208;-71
2022/01/08 06:48:12;;;;;;;;;;;20.00;57.30;;;;;;5054110;28;1122;-71
2022/01/08 06:50:38;;;;;;;;;;;19.90;57.30;;;;;;5052614;28;1201;-71
2022/01/08 06:53:03;;;;;;;;;;;19.90;57.30;;;;;;5053473;28;1092;-71
2022/01/08 06:55:29;;;;;;;;;;;20.00;57.40;;;;;;5053492;28;1898;-71
2022/01/08 06:57:55;;;;;;;;;;;20.00;57.40;;;;;;5053614;28;1301;-72
2022/01/08 07:00:20;;;;;;;;;;;20.00;57.40;;;;;;5052533;28;1068;-71
2022/01/08 07:02:46;;;;;;;;;;;20.00;57.30;;;;;;5053744;28;1188;-71
2022/01/08 07:05:11;;;;;;;;;;;20.00;57.30;;;;;;5053387;28;1281;-71
2022/01/08 07:07:37;;;;;;;;;;;19.90;57.30;;;;;;5053622;28;1329;-71
2022/01/08 07:10:02;;;;;;;;;;;19.90;57.30;;;;;;5053612;28;1122;-71
2022/01/08 07:12:28;;;;;;;;;;;19.90;57.30;;;;;;5053645;28;1087;-71
2022/01/08 07:14:53;;;;;;;;;;;19.90;57.30;;;;;;5052975;28;1957;-71
2022/01/08 07:17:18;;;;;;;;;;;19.90;57.30;;;;;;5053241;28;1091;-71
2022/01/08 07:19:44;;;;;;;;;;;20.00;57.40;;;;;;5052239;28;1142;-71
2022/01/08 07:22:09;;;;;;;;;;;19.90;57.30;;;;;;5053122;28;1277;-71
2022/01/08 07:24:35;;;;;;;;;;;20.00;57.40;;;;;;5052818;28;1298;-71
2022/01/08 07:27:00;;;;;;;;;;;20.00;57.40;;;;;;5052963;28;1056;-71
2022/01/08 07:29:26;;;;;;;;;;;20.00;57.40;;;;;;5053210;28;1138;-71
2022/01/08 07:31:51;;;;;;;;;;;20.00;57.40;;;;;;5053113;28;1079;-71
2022/01/08 07:34:16;;;;;;;;;;;20.00;57.40;;;;;;5052750;28;1155;-71
2022/01/08 07:36:43;;;;;;;;;;;20.00;57.40;;;;;;5053027;28;1987;-71
2022/01/08 07:39:08;;;;;;;;;;;20.00;57.40;;;;;;5052768;28;1151;-71
2022/01/08 07:41:34;;;;;;;;;;;20.00;57.40;;;;;;5052971;28;1294;-71
2022/01/08 07:43:59;;;;;;;;;;;20.00;57.40;;;;;;5052908;28;1364;-71
2022/01/08 07:46:25;;;;;;;;;;;19.90;57.40;;;;;;5052763;28;1242;-71
2022/01/08 07:48:50;;;;;;;;;;;19.90;57.40;;;;;;5052900;28;1135;-71
2022/01/08 07:51:15;;;;;;;;;;;19.90;57.30;;;;;;5052797;28;1127;-71
2022/01/08 07:53:41;;;;;;;;;;;19.90;57.40;;;;;;5052410;28;1067;-71
2022/01/08 07:56:06;;;;;;;;;;;19.90;57.40;;;;;;5052579;28;1906;-71
2022/01/08 07:58:32;;;;;;;;;;;19.90;57.40;;;;;;5053164;28;1269;-71
2022/01/08 08:00:57;;;;;;;;;;;19.90;57.40;;;;;;5052585;28;1329;-70
2022/01/08 08:03:23;;;;;;;;;;;19.90;57.40;;;;;;5052529;28;1071;-73
2022/01/08 08:05:48;;;;;;;;;;;19.90;57.00;;;;;;5051392;28;1279;-71
2022/01/08 08:08:15;;;;;;;;;;;20.00;56.20;;;;;;5053027;28;1408;-71
2022/01/08 08:10:40;;;;;;;;;;;20.00;55.00;;;;;;5051469;28;1209;-71
2022/01/08 08:13:06;;;;;;;;;;;20.00;54.50;;;;;;5051624;28;1896;-71
2022/01/08 08:15:31;;;;;;;;;;;20.20;54.50;;;;;;5047890;28;2429;-71
2022/01/08 08:17:57;;;;;;;;;;;20.30;54.20;;;;;;5046162;28;1048;-71
2022/01/08 08:20:22;;;;;;;;;;;20.40;54.00;;;;;;5054327;28;1098;-71
2022/01/08 08:22:48;;;;;;;;;;;20.50;53.80;;;;;;5056359;28;1294;-71
2022/01/08 08:25:13;;;;;;;;;;;20.60;53.70;;;;;;5056219;28;1392;-71
2022/01/08 08:27:39;;;;;;;;;;;20.70;53.50;;;;;;5056545;28;1373;-71
2022/01/08 08:30:05;;;;;;;;;;;20.80;53.40;;;;;;5055249;28;1263;-71
2022/01/08 08:32:30;;;;;;;;;;;20.90;53.30;;;;;;5055281;28;1329;-71
2022/01/08 08:34:56;;;;;;;;;;;21.00;53.10;;;;;;5056194;28;1909;-71
2022/01/08 08:37:21;;;;;;;;;;;21.10;53.00;;;;;;5054966;28;1327;-71
2022/01/08 08:39:47;;;;;;;;;;;21.20;52.90;;;;;;5055264;28;1337;-70
2022/01/08 08:42:12;;;;;;;;;;;21.30;52.80;;;;;;5054990;28;1058;-71
2022/01/08 08:44:37;;;;;;;;;;;21.30;52.70;;;;;;5054778;28;1204;-71
2022/01/08 08:47:04;;;;;;;;;;;21.40;52.60;;;;;;5056108;28;1333;-70
2022/01/08 08:49:29;;;;;;;;;;;21.50;52.50;;;;;;5054980;28;1080;-71
2022/01/08 08:51:55;;;;;;;;;;;21.60;52.50;;;;;;5055936;28;1373;-71
2022/01/08 08:54:20;;;;;;;;;;;21.60;52.40;;;;;;5055831;28;1266;-71
2022/01/08 08:56:46;;;;;;;;;;;21.60;52.40;;;;;;5054636;28;1910;-71
2022/01/08 08:59:11;;;;;;;;;;;21.60;52.40;;;;;;5056074;28;1400;-71
2022/01/08 09:01:37;;;;;;;;;;;21.70;52.40;;;;;;5055771;28;1334;-71
2022/01/08 09:04:02;;;;;;;;;;;21.70;52.40;;;;;;5055547;28;1570;-71
2022/01/08 09:06:30;;;;;;;;;;;21.70;52.40;;;;;;5055637;28;1278;-70
2022/01/08 09:08:55;;;;;;;;;;;21.70;52.50;;;;;;5055634;28;1393;-71
2022/01/08 09:11:21;;;;;;;;;;;21.70;52.50;;;;;;5055800;28;1420;-71
2022/01/08 09:13:46;;;;;;;;;;;21.80;53.20;;;;;;5055300;28;1299;-71
2022/01/08 09:16:12;;;;;;;;;;;21.80;52.60;;;;;;5055536;28;1898;-71
2022/01/08 09:18:37;;;;;;;;;;;21.80;52.70;;;;;;5055609;28;1297;-71
2022/01/08 09:21:03;;;;;;;;;;;21.80;52.80;;;;;;5055461;28;1244;-71
2022/01/08 09:23:30;;;;;;;;;;;21.80;52.90;;;;;;5037168;28;1297;-71
2022/01/08 09:25:55;;;;;;;;;;;21.70;53.00;;;;;;5055293;28;1379;-71
2022/01/08 09:28:21;;;;;;;;;;;21.70;53.00;;;;;;5055347;28;1310;-70
2022/01/08 09:30:46;;;;;;;;;;;21.70;52.90;;;;;;5054357;28;1302;-71
2022/01/08 09:33:12;;;;;;;;;;;21.70;53.00;;;;;;5055025;28;1064;-71
2022/01/08 09:35:37;;;;;;;;;;;21.70;53.00;;;;;;5055610;28;1979;-71
2022/01/08 09:38:02;;;;;;;;;;;21.70;53.00;;;;;;5055084;28;1442;-71
2022/01/08 09:40:28;;;;;;;;;;;21.70;53.00;;;;;;5055150;28;1346;-71
2022/01/08 09:42:54;;;;;;;;;;;21.70;53.00;;;;;;5053811;28;1385;-71
2022/01/08 09:45:20;;;;;;;;;;;21.70;53.10;;;;;;5055113;28;1290;-71
2022/01/08 09:47:45;;;;;;;;;;;21.60;53.00;;;;;;5055083;28;1310;-70
2022/01/08 09:50:10;;;;;;;;;;;21.60;53.10;;;;;;5051409;28;1661;-70
2022/01/08 09:52:36;;;;;;;;;;;21.60;53.20;;;;;;5052751;28;1361;-66
2022/01/08 09:55:02;;;;;;;;;;;21.60;53.20;;;;;;5054260;28;1902;-67
2022/01/08 09:57:27;;;;;;;;;;;21.60;53.30;;;;;;5050420;28;1698;-73
2022/01/08 09:59:53;;;;;;;;;;;21.60;53.40;;;;;;5054113;28;1480;-67
2022/01/08 10:02:22;;;;;;;;;;;21.50;53.40;;;;;;5054361;28;1252;-72
2022/01/08 10:04:47;;;;;;;;;;;21.50;53.50;;;;;;5054232;28;1390;-70
2022/01/08 10:07:16;;;;;;;;;;;21.50;53.60;;;;;;5053276;28;1281;-72
2022/01/08 10:09:58;;;;;;;;;;;21.40;53.60;;;;;;5054595;28;1143;-72
2022/01/08 10:12:40;;;;;;;;;;;21.40;53.70;;;;;;5053383;28;1409;-72
2022/01/08 10:17:49;;;;;;;;;;;21.40;53.90;;;;;;5041702;28;1001;-72
2022/01/08 10:20:26;;;;;;;;;;;21.40;53.90;;;;;;5054479;28;1055;-72
2022/01/08 10:22:59;;;;;;;;;;;21.30;53.90;;;;;;5052984;28;1412;-72
2022/01/08 10:25:24;;;;;;;;;;;21.30;54.00;;;;;;5075652;22;3631;-70
2022/01/08 10:27:50;;;;;;;;;;;21.30;54.10;;;;;;5069212;28;1451;-71
2022/01/08 10:30:27;;;;;;;;;;;21.30;54.10;;;;;;5054025;28;1285;-71
2022/01/08 10:33:00;;;;;;;;;;;21.30;54.20;;;;;;5041413;28;1105;-71
2022/01/08 10:36:03;;;;;;;;;;;21.20;54.20;;;;;;5048071;28;1906;-71
2022/01/08 10:38:30;;;;;;;;;;;21.20;54.20;;;;;;5011243;28;1401;-71
2022/01/08 10:40:55;;;;;;;;;;;21.20;54.30;;;;;;5011826;28;1294;-71
2022/01/08 10:43:21;;;;;;;;;;;21.20;54.30;;;;;;5020751;28;1296;-71
2022/01/08 10:45:47;;;;;;;;;;;21.20;54.40;;;;;;5033857;28;1280;-71
2022/01/08 10:48:13;;;;;;;;;;;21.20;54.40;;;;;;5032026;28;1383;-71
2022/01/08 10:50:38;;;;;;;;;;;21.10;54.40;;;;;;5033698;28;1294;-71
2022/01/08 10:53:04;;;;;;;;;;;21.10;54.50;;;;;;5048031;28;1108;-70
2022/01/08 10:55:30;;;;;;;;;;;21.10;54.50;;;;;;5048899;28;1906;-70
2022/01/08 10:57:55;;;;;;;;;;;21.10;54.60;;;;;;5048832;28;1386;-71
2022/01/08 11:00:22;;;;;;;;;;;21.10;54.60;;;;;;5033658;28;1262;-71
2022/01/08 11:02:47;;;;;;;;;;;21.10;54.70;;;;;;5048724;28;1460;-71
2022/01/08 11:05:13;;;;;;;;;;;21.10;54.70;;;;;;5032395;28;1401;-71
2022/01/08 11:07:40;;;;;;;;;;;21.10;54.70;;;;;;5033547;28;1358;-71
2022/01/08 11:10:07;;;;;;;;;;;21.10;54.70;;;;;;5023492;28;1079;-69
2022/01/08 11:12:39;;;;;;;;;;;21.10;54.70;;;;;;5029177;28;1135;-69
2022/01/08 11:17:38;;;;;;;;;;;21.10;54.70;;;;;;5030618;28;1107;-72
2022/01/08 11:20:11;;;;;;;;;;;21.10;54.70;;;;;;5031587;28;1545;-73
2022/01/08 11:22:38;;;;;;;;;;;21.10;54.70;;;;;;5048130;28;1126;-71
2022/01/08 11:25:09;;;;;;;;;;;21.10;54.60;;;;;;5047718;28;1293;-71
2022/01/08 11:27:39;;;;;;;;;;;21.10;54.60;;;;;;5013303;28;843;-69
2022/01/08 11:30:07;;;;;;;;;;;21.20;54.60;;;;;;5029316;28;1179;-72
2022/01/08 11:32:33;;;;;;;;;;;21.20;54.60;;;;;;5047894;28;1122;-69
2022/01/08 11:34:58;;;;;;;;;;;21.20;54.60;;;;;;5031460;28;1919;-69
2022/01/08 11:37:25;;;;;;;;;;;21.20;54.60;;;;;;5019989;28;1257;-73
2022/01/08 11:39:51;;;;;;;;;;;21.20;54.60;;;;;;5031019;28;1269;-71
2022/01/08 11:42:20;;;;;;;;;;;21.20;54.60;;;;;;5047744;28;1079;-71
2022/01/08 11:44:46;;;;;;;;;;;21.10;54.60;;;;;;5032112;28;1052;-71
2022/01/08 11:47:12;;;;;;;;;;;21.10;54.60;;;;;;5032186;28;1217;-72
2022/01/08 11:49:37;;;;;;;;;;;21.10;54.70;;;;;;5032336;28;1063;-71
2022/01/08 11:52:32;;;;;;;;;;;21.10;54.70;;;;;;5047923;28;1079;-71
2022/01/08 11:54:58;;;;;;;;;;;21.10;54.70;;;;;;5027174;28;1898;-69
2022/01/08 11:57:24;;;;;;;;;;;21.10;54.70;;;;;;5032400;28;1220;-71
2022/01/08 11:59:56;;;;;;;;;;;21.10;54.70;;;;;;5048037;28;1213;-69
2022/01/08 12:02:21;;;;;;;;;;;21.10;54.70;;;;;;5031654;28;1515;-72
2022/01/08 12:04:51;;;;;;;;;;;21.10;54.70;;;;;;5031450;28;1138;-71
2022/01/08 12:07:24;;;;;;;;;;;21.10;54.80;;;;;;5047582;28;1203;-71
2022/01/08 12:09:56;;;;;;;;;;;21.10;54.90;;;;;;5027477;28;1098;-71
2022/01/08 12:12:23;;;;;;;;;;;21.10;54.90;;;;;;5047690;28;1277;-70
2022/01/08 12:14:48;;;;;;;;;;;21.10;54.90;;;;;;5047124;28;1894;-71
2022/01/08 12:17:17;;;;;;;;;;;21.00;54.90;;;;;;5031708;28;1205;-71
2022/01/08 12:19:45;;;;;;;;;;;21.00;54.90;;;;;;5032303;28;1059;-71
2022/01/08 12:22:16;;;;;;;;;;;21.00;55.00;;;;;;5032130;28;1396;-71
2022/01/08 12:24:42;;;;;;;;;;;21.00;55.00;;;;;;5031517;28;1489;-71
2022/01/08 12:27:19;;;;;;;;;;;21.00;55.00;;;;;;5044229;28;1938;-71
2022/01/08 12:29:44;;;;;;;;;;;21.00;55.00;;;;;;5024070;28;1227;-73
2022/01/08 12:32:18;;;;;;;;;;;21.00;55.10;;;;;;5032662;28;1412;-72
2022/01/08 12:34:49;;;;;;;;;;;21.00;55.00;;;;;;5016496;28;1110;-71
2022/01/08 12:37:15;;;;;;;;;;;21.00;55.00;;;;;;5025319;28;1303;-71
2022/01/08 12:39:43;;;;;;;;;;;21.10;55.00;;;;;;5030199;28;1198;-72
2022/01/08 12:42:24;;;;;;;;;;;21.10;55.00;;;;;;5032007;28;1099;-72
2022/01/08 12:45:19;;;;;;;;;;;21.10;55.00;;;;;;5028764;28;1377;-73
2022/01/08 12:47:57;;;;;;;;;;;21.10;54.90;;;;;;5021469;28;1488;-71
2022/01/08 12:50:28;;;;;;;;;;;21.10;54.80;;;;;;5032199;28;977;-72
2022/01/08 12:53:06;;;;;;;;;;;21.20;54.80;;;;;;5031395;28;1045;-73
2022/01/08 12:55:32;;;;;;;;;;;21.20;54.80;;;;;;5032179;28;1902;-73
2022/01/08 12:57:57;;;;;;;;;;;21.20;54.80;;;;;;5032524;28;1063;-73
2022/01/08 13:00:23;;;;;;;;;;;21.20;54.70;;;;;;5030597;28;1164;-72
2022/01/08 13:02:48;;;;;;;;;;;21.20;54.70;;;;;;5031149;28;1371;-70
2022/01/08 13:05:14;;;;;;;;;;;21.20;54.70;;;;;;5032349;28;1286;-72
2022/01/08 13:07:49;;;;;;;;;;;21.20;54.70;;;;;;5035540;28;1286;-72
2022/01/08 13:10:14;;;;;;;;;;;21.20;54.70;;;;;;5030007;28;1131;-73
2022/01/08 13:12:39;;;;;;;;;;;21.20;54.70;;;;;;5033380;28;1984;-72
2022/01/08 13:15:05;;;;;;;;;;;21.20;54.70;;;;;;5025373;28;2158;-72
2022/01/08 13:17:30;;;;;;;;;;;21.20;54.70;;;;;;5019895;28;1339;-72
2022/01/08 13:20:05;;;;;;;;;;;21.20;54.70;;;;;;5035359;28;1138;-72
2022/01/08 13:22:31;;;;;;;;;;;21.20;54.70;;;;;;5033722;28;1155;-72
2022/01/08 13:24:57;;;;;;;;;;;21.20;54.70;;;;;;5050431;28;1266;-73
2022/01/08 13:27:23;;;;;;;;;;;21.10;54.70;;;;;;5035126;28;1221;-72
2022/01/08 13:29:49;;;;;;;;;;;21.10;54.70;;;;;;5035163;28;1282;-73
2022/01/08 13:32:16;;;;;;;;;;;21.10;54.70;;;;;;5050186;28;1378;-72
2022/01/08 13:34:45;;;;;;;;;;;21.10;54.70;;;;;;5034675;28;1408;-72
2022/01/08 13:37:11;;;;;;;;;;;21.10;54.80;;;;;;5050539;28;1898;-72
2022/01/08 13:39:38;;;;;;;;;;;21.10;54.90;;;;;;5034759;28;1274;-72
2022/01/08 13:42:08;;;;;;;;;;;21.10;54.90;;;;;;5050031;28;1539;-72
2022/01/08 13:44:34;;;;;;;;;;;21.10;54.90;;;;;;5034384;28;1051;-73
2022/01/08 13:46:59;;;;;;;;;;;21.10;54.90;;;;;;5034942;28;1197;-73
2022/01/08 13:49:25;;;;;;;;;;;21.10;55.00;;;;;;5034870;28;1126;-71
2022/01/08 13:51:50;;;;;;;;;;;21.10;55.00;;;;;;5034007;28;1381;-71
2022/01/08 13:54:15;;;;;;;;;;;21.10;55.00;;;;;;5049678;28;1123;-71
2022/01/08 13:56:42;;;;;;;;;;;21.10;55.10;;;;;;5034487;28;1894;-71
2022/01/08 13:59:12;;;;;;;;;;;21.00;55.10;;;;;;5033259;28;1325;-70
2022/01/08 14:01:44;;;;;;;;;;;21.00;55.10;;;;;;5033603;28;1384;-71
2022/01/08 14:04:10;;;;;;;;;;;21.00;55.10;;;;;;5016092;28;1075;-71
2022/01/08 14:06:36;;;;;;;;;;;21.00;55.20;;;;;;5033667;28;1308;-71
2022/01/08 14:09:02;;;;;;;;;;;21.00;55.20;;;;;;5044951;28;1107;-70
2022/01/08 14:11:28;;;;;;;;;;;21.00;55.20;;;;;;5044182;28;1819;-69
2022/01/08 14:13:55;;;;;;;;;;;21.00;55.20;;;;;;5031043;28;1564;-70
2022/01/08 14:16:27;;;;;;;;;;;20.90;55.20;;;;;;5016475;28;1961;-71
2022/01/08 14:18:53;;;;;;;;;;;20.90;55.30;;;;;;5030178;28;1217;-70
2022/01/08 14:21:24;;;;;;;;;;;20.90;55.90;;;;;;5022228;28;1177;-70
2022/01/08 14:23:50;;;;;;;;;;;20.90;55.30;;;;;;5029951;28;1040;-70
2022/01/08 14:26:19;;;;;;;;;;;20.90;55.30;;;;;;5029269;28;1355;-69
2022/01/08 14:29:00;;;;;;;;;;;20.90;55.40;;;;;;5029000;28;1211;-71
2022/01/08 14:31:26;;;;;;;;;;;20.90;55.40;;;;;;5026505;28;1051;-70
2022/01/08 14:33:59;;;;;;;;;;;20.90;55.40;;;;;;5019370;28;1586;-70
2022/01/08 14:36:24;;;;;;;;;;;20.90;55.50;;;;;;5031430;28;1910;-72
2022/01/08 14:38:50;;;;;;;;;;;20.80;55.50;;;;;;5018529;28;1978;-70
2022/01/08 14:41:28;;;;;;;;;;;20.80;55.50;;;;;;5021447;28;1243;-72
2022/01/08 14:43:57;;;;;;;;;;;20.80;55.50;;;;;;5029881;28;1310;-73
2022/01/08 14:46:23;;;;;;;;;;;20.80;55.60;;;;;;5029418;28;1424;-72
2022/01/08 14:48:48;;;;;;;;;;;20.80;55.60;;;;;;5046712;28;1380;-74
2022/01/08 14:51:17;;;;;;;;;;;20.80;55.60;;;;;;5032582;28;1552;-73
2022/01/08 14:53:42;;;;;;;;;;;20.80;55.60;;;;;;5033113;28;1290;-73